Milam Dairy, Florida
Current Conditions -  °F | °C
As of 2:53 AM on Thursday 29 Jan 2015 (Local Time) from KMIA Reporting Station
Few Clouds Few Clouds  
Wind Chill: 55°   Ceiling: Unl
Heat Index: 55°   Visibility: 10mi
Dew Point: 47°   Wind: 6mph
Humidity: 74%   Direction: 340°NNW
Pressure: 30.18"   Gusts: NA
Location:  25.8267°N, 80.3148°W
Report Text: KMIA 290753Z 34005KT 10SM FEW050 13/08 A3018 RMK AO2 SLP219 T01280083
Loading
Personal Weather Stations






























Interactive Weather Map New forecast layout! Learn more

10-Day Weather Forecast

Advertisements
Track Severe Weather on mobile